createdAt,value
2023-04-08T00:00:53.914Z,10.60
2023-04-08T00:03:21.799Z,10.70
2023-04-08T00:05:49.051Z,10.70
2023-04-08T00:08:16.019Z,10.70
2023-04-08T00:10:42.944Z,10.80
2023-04-08T00:13:09.841Z,10.80
2023-04-08T00:15:37.320Z,10.70
2023-04-08T00:18:04.577Z,10.70
2023-04-08T00:20:31.521Z,10.70
2023-04-08T00:22:58.418Z,10.70
2023-04-08T00:25:25.817Z,10.80
2023-04-08T00:27:52.859Z,10.70
2023-04-08T00:30:19.768Z,10.70
2023-04-08T00:32:46.937Z,10.60
2023-04-08T00:35:14.110Z,10.50
2023-04-08T00:37:41.605Z,10.50
2023-04-08T00:40:08.853Z,10.50
2023-04-08T00:42:35.815Z,10.50
2023-04-08T00:45:02.739Z,10.60
2023-04-08T00:47:29.827Z,10.50
2023-04-08T00:49:56.872Z,10.60
2023-04-08T00:52:23.811Z,10.60
2023-04-08T00:54:50.709Z,10.60
2023-04-08T00:57:17.613Z,10.50
2023-04-08T00:59:44.665Z,10.50
2023-04-08T01:02:17.862Z,10.60
2023-04-08T01:04:53.700Z,10.50
2023-04-08T01:07:34.685Z,10.40
2023-04-08T01:10:22.070Z,10.40
2023-04-08T01:12:59.318Z,10.40
2023-04-08T01:15:27.313Z,10.40
2023-04-08T01:17:55.268Z,10.40
2023-04-08T01:20:24.349Z,10.40
2023-04-08T01:23:06.460Z,10.40
2023-04-08T01:25:35.031Z,10.40
2023-04-08T01:28:04.046Z,10.40
2023-04-08T01:30:31.391Z,10.40
2023-04-08T01:32:59.328Z,10.40
2023-04-08T01:35:26.494Z,10.40
2023-04-08T01:37:53.802Z,10.40
2023-04-08T01:40:20.853Z,10.40
2023-04-08T01:42:49.020Z,10.40
2023-04-08T01:45:16.615Z,10.20
2023-04-08T01:47:45.195Z,10.20
2023-04-08T01:50:12.602Z,10.20
2023-04-08T01:52:40.318Z,10.20
2023-04-08T01:55:07.546Z,10.20
2023-04-08T01:57:35.954Z,10.10
2023-04-08T02:00:08.421Z,10.10
2023-04-08T02:02:36.866Z,10.00
2023-04-08T02:05:04.422Z,10.00
2023-04-08T02:07:31.283Z,10.00
2023-04-08T02:10:01.455Z,10.10
2023-04-08T02:12:28.527Z,10.10
2023-04-08T02:14:57.824Z,10.20
2023-04-08T02:17:37.645Z,10.20
2023-04-08T02:20:08.714Z,10.20
2023-04-08T02:22:35.597Z,10.20
2023-04-08T02:25:04.060Z,10.30
2023-04-08T02:27:34.362Z,10.30
2023-04-08T02:30:03.759Z,10.30
2023-04-08T02:32:31.769Z,10.30
2023-04-08T02:34:59.931Z,10.30
2023-04-08T02:37:28.277Z,10.30
2023-04-08T02:39:55.421Z,10.30
2023-04-08T02:42:22.411Z,10.30
2023-04-08T02:44:49.408Z,10.30
2023-04-08T02:47:17.024Z,10.30
2023-04-08T02:49:44.030Z,10.30
2023-04-08T02:52:11.056Z,10.30
2023-04-08T02:54:37.963Z,10.30
2023-04-08T02:57:04.824Z,10.30
2023-04-08T02:59:31.907Z,10.20
2023-04-08T03:01:58.936Z,10.20
2023-04-08T03:04:26.183Z,10.20
2023-04-08T03:06:53.065Z,10.10
2023-04-08T03:09:19.971Z,10.10
2023-04-08T03:11:52.746Z,10.10
2023-04-08T03:14:19.624Z,10.10
2023-04-08T03:16:46.519Z,10.10
2023-04-08T03:19:13.548Z,10.00
2023-04-08T03:21:40.413Z,10.10
2023-04-08T03:24:07.336Z,10.00
2023-04-08T03:26:34.273Z,10.00
2023-04-08T03:29:01.346Z,10.00
2023-04-08T03:31:28.425Z,10.00
2023-04-08T03:33:55.477Z,9.90
2023-04-08T03:36:22.364Z,9.90
2023-04-08T03:38:49.541Z,9.90
2023-04-08T03:41:16.816Z,9.90
2023-04-08T03:43:44.530Z,9.80
2023-04-08T03:46:11.673Z,9.80
2023-04-08T03:48:38.948Z,9.80
2023-04-08T03:51:05.878Z,9.80
2023-04-08T03:53:32.868Z,9.80
2023-04-08T03:56:00.223Z,9.80
2023-04-08T03:58:27.176Z,9.80
2023-04-08T04:00:54.046Z,9.80
2023-04-08T04:03:21.809Z,9.70
2023-04-08T04:05:49.120Z,9.80
2023-04-08T04:08:16.180Z,9.70
2023-04-08T04:10:43.080Z,9.70
2023-04-08T04:13:09.949Z,9.70
2023-04-08T04:15:40.378Z,9.60
2023-04-08T04:18:07.791Z,9.60
2023-04-08T04:20:34.838Z,9.60
2023-04-08T04:23:01.940Z,9.60
2023-04-08T04:25:28.898Z,9.60
2023-04-08T04:27:55.814Z,9.60
2023-04-08T04:30:22.693Z,9.50
2023-04-08T04:32:49.667Z,9.50
2023-04-08T04:35:16.563Z,9.50
2023-04-08T04:37:43.585Z,9.50
2023-04-08T04:40:10.918Z,9.40
2023-04-08T04:42:37.776Z,9.40
2023-04-08T04:45:05.571Z,9.40
2023-04-08T04:47:32.990Z,9.50
2023-04-08T04:49:59.851Z,9.50
2023-04-08T04:52:26.861Z,9.50
2023-04-08T04:54:53.962Z,9.50
2023-04-08T04:57:20.904Z,9.50
2023-04-08T04:59:47.743Z,9.50
2023-04-08T05:02:14.793Z,9.50
2023-04-08T05:04:41.938Z,9.50
2023-04-08T05:07:08.874Z,9.50
2023-04-08T05:09:35.879Z,9.50
2023-04-08T05:12:02.784Z,9.50
2023-04-08T05:14:30.594Z,9.50
2023-04-08T05:16:57.702Z,9.50
2023-04-08T05:19:24.612Z,9.50
2023-04-08T05:21:51.564Z,9.60
2023-04-08T05:24:18.462Z,9.60
2023-04-08T05:26:45.813Z,9.60
2023-04-08T05:29:12.702Z,9.70
2023-04-08T05:31:39.588Z,9.70
2023-04-08T05:34:06.584Z,9.70
2023-04-08T05:36:33.430Z,9.70
2023-04-08T05:39:01.502Z,9.80
2023-04-08T05:41:29.085Z,9.70
2023-04-08T05:43:56.037Z,9.80
2023-04-08T05:46:23.003Z,9.80
2023-04-08T05:48:50.221Z,9.80
2023-04-08T05:51:18.092Z,9.80
2023-04-08T05:53:47.961Z,9.80
2023-04-08T05:56:15.545Z,9.80
2023-04-08T05:58:42.390Z,9.80
2023-04-08T06:01:09.282Z,9.70
2023-04-08T06:03:36.270Z,9.70
2023-04-08T06:06:03.492Z,9.70
2023-04-08T06:08:30.329Z,9.70
2023-04-08T06:10:57.385Z,9.60
2023-04-08T06:13:25.728Z,9.60
2023-04-08T06:15:52.679Z,9.60
2023-04-08T06:18:19.577Z,9.60
2023-04-08T06:20:46.702Z,9.50
2023-04-08T06:23:13.759Z,9.50
2023-04-08T06:25:40.696Z,9.50
2023-04-08T06:28:07.759Z,9.50
2023-04-08T06:30:34.920Z,9.50
2023-04-08T06:33:02.300Z,9.50
2023-04-08T06:35:29.629Z,9.50
2023-04-08T06:37:56.656Z,9.40
2023-04-08T06:40:23.571Z,9.50
2023-04-08T06:42:51.121Z,9.50
2023-04-08T06:45:17.967Z,9.50
2023-04-08T06:47:44.847Z,9.50
2023-04-08T06:50:11.747Z,9.50
2023-04-08T06:52:38.746Z,9.60
2023-04-08T06:55:06.024Z,9.60
2023-04-08T06:57:32.976Z,9.60
2023-04-08T07:00:00.709Z,9.60
2023-04-08T07:02:28.029Z,9.60
2023-04-08T07:04:55.033Z,9.60
2023-04-08T07:07:23.654Z,9.70
2023-04-08T07:09:51.073Z,9.70
2023-04-08T07:12:18.099Z,9.70
2023-04-08T07:14:44.979Z,9.70
2023-04-08T07:17:11.993Z,9.70
2023-04-08T07:19:39.386Z,9.70
2023-04-08T07:22:06.437Z,9.70
2023-04-08T07:24:34.484Z,9.70
2023-04-08T07:27:01.668Z,9.70
2023-04-08T07:29:29.228Z,9.70
2023-04-08T07:31:56.244Z,9.70
2023-04-08T07:34:23.267Z,9.70
2023-04-08T07:36:50.211Z,9.60
2023-04-08T07:39:17.222Z,9.60
2023-04-08T07:41:46.333Z,9.60
2023-04-08T07:44:17.390Z,9.50
2023-04-08T07:46:46.693Z,9.50
2023-04-08T07:49:13.627Z,9.50
2023-04-08T07:51:40.595Z,9.50
2023-04-08T07:54:07.535Z,9.40
2023-04-08T07:56:34.407Z,9.40
2023-04-08T07:59:01.301Z,9.40
2023-04-08T08:01:31.543Z,9.30
2023-04-08T08:03:59.049Z,9.30
2023-04-08T08:06:27.817Z,9.30
2023-04-08T08:08:54.711Z,9.20
2023-04-08T08:11:24.756Z,9.20
2023-04-08T08:13:51.849Z,9.20
2023-04-08T08:16:19.144Z,9.20
2023-04-08T08:18:48.793Z,9.30
2023-04-08T08:21:16.209Z,9.30
2023-04-08T08:23:43.124Z,9.30
2023-04-08T08:26:10.636Z,9.30
2023-04-08T08:28:38.280Z,9.30
2023-04-08T08:31:06.364Z,9.20
2023-04-08T08:33:33.587Z,9.20
2023-04-08T08:36:00.618Z,9.20
2023-04-08T08:38:27.709Z,9.20
2023-04-08T08:40:58.156Z,9.20
2023-04-08T08:43:25.503Z,9.20
2023-04-08T08:45:52.684Z,9.10
2023-04-08T08:48:19.662Z,9.10
2023-04-08T08:50:46.761Z,9.00
2023-04-08T08:53:13.694Z,9.00
2023-04-08T08:56:05.648Z,8.90
2023-04-08T08:58:28.225Z,8.90
2023-04-08T09:00:55.580Z,8.90
2023-04-08T09:03:29.984Z,9.00
2023-04-08T09:06:01.217Z,9.00
2023-04-08T09:08:31.657Z,9.00
2023-04-08T09:11:12.713Z,9.10
2023-04-08T09:13:41.577Z,9.10
2023-04-08T09:16:10.437Z,9.10
2023-04-08T09:18:37.823Z,9.10
2023-04-08T09:21:05.704Z,9.10
2023-04-08T09:23:45.740Z,9.10
2023-04-08T09:26:13.930Z,9.00
2023-04-08T09:28:41.292Z,9.00
2023-04-08T09:31:21.244Z,9.00
2023-04-08T09:33:49.299Z,9.10
2023-04-08T09:36:17.184Z,9.10
2023-04-08T09:38:44.470Z,9.10
2023-04-08T09:41:18.421Z,9.10
2023-04-08T09:43:52.199Z,9.10
2023-04-08T09:46:24.284Z,9.10
2023-04-08T09:49:17.516Z,9.10
2023-04-08T09:51:53.481Z,9.10
2023-04-08T09:54:23.356Z,9.10
2023-04-08T09:57:01.765Z,9.10
2023-04-08T09:59:32.113Z,9.10
2023-04-08T10:02:01.113Z,9.10
2023-04-08T10:04:29.434Z,9.10
2023-04-08T10:06:58.413Z,9.10
2023-04-08T10:09:25.500Z,9.20
2023-04-08T10:11:53.788Z,9.20
2023-04-08T10:14:22.426Z,9.20
2023-04-08T10:16:49.402Z,9.30
2023-04-08T10:19:34.935Z,9.30
2023-04-08T10:22:01.803Z,9.30
2023-04-08T10:24:28.868Z,9.40
2023-04-08T10:26:56.610Z,9.40
2023-04-08T10:29:26.780Z,9.40
2023-04-08T10:31:53.724Z,9.40
2023-04-08T10:34:21.917Z,9.40
2023-04-08T10:36:51.900Z,9.40
2023-04-08T10:39:19.000Z,9.50
2023-04-08T10:41:46.582Z,9.50
2023-04-08T10:44:17.971Z,9.50
2023-04-08T10:46:46.180Z,9.50
2023-04-08T10:49:13.483Z,9.60
2023-04-08T10:51:40.482Z,9.60
2023-04-08T10:54:11.099Z,9.60
2023-04-08T10:56:44.145Z,9.60
2023-04-08T10:59:11.201Z,9.60
2023-04-08T11:01:40.228Z,9.60
2023-04-08T11:04:08.275Z,9.50
2023-04-08T11:06:37.081Z,9.50
2023-04-08T11:09:04.576Z,9.50
2023-04-08T11:11:32.036Z,9.50
2023-04-08T11:13:59.163Z,9.50
2023-04-08T11:16:28.082Z,9.50
2023-04-08T11:18:55.933Z,9.50
2023-04-08T11:21:29.782Z,9.50
2023-04-08T11:23:57.372Z,9.50
2023-04-08T11:26:25.306Z,9.50
2023-04-08T11:28:52.541Z,9.50
2023-04-08T11:31:22.731Z,9.60
2023-04-08T11:33:53.219Z,9.60
2023-04-08T11:36:22.158Z,9.60
2023-04-08T11:38:49.150Z,9.60
2023-04-08T11:41:16.451Z,9.60
2023-04-08T11:43:56.083Z,9.60
2023-04-08T11:46:23.815Z,9.60
2023-04-08T11:48:59.680Z,9.60
2023-04-08T11:51:27.395Z,9.60
2023-04-08T11:53:56.128Z,9.60
2023-04-08T11:56:24.501Z,9.60
2023-04-08T11:58:52.171Z,9.60
2023-04-08T12:01:19.875Z,9.70
2023-04-08T12:03:57.474Z,9.70
2023-04-08T12:06:25.320Z,9.60
2023-04-08T12:08:52.864Z,9.60
2023-04-08T12:11:20.386Z,9.60
2023-04-08T12:13:50.064Z,9.60
2023-04-08T12:16:18.053Z,9.60
2023-04-08T12:18:45.156Z,9.70
2023-04-08T12:21:12.207Z,9.70
2023-04-08T12:23:39.191Z,9.80
2023-04-08T12:26:06.273Z,9.80
2023-04-08T12:28:34.792Z,9.80
2023-04-08T12:31:01.953Z,9.90
2023-04-08T12:33:28.921Z,9.80
2023-04-08T12:35:56.090Z,9.90
2023-04-08T12:38:23.086Z,9.90
2023-04-08T12:40:50.347Z,9.90
2023-04-08T12:43:17.804Z,9.90
2023-04-08T12:45:44.752Z,9.90
2023-04-08T12:48:11.691Z,9.90
2023-04-08T12:50:38.572Z,9.90
2023-04-08T12:53:05.468Z,9.80
2023-04-08T12:55:32.348Z,9.80
2023-04-08T12:58:00.303Z,9.80
2023-04-08T13:00:27.472Z,9.70
2023-04-08T13:02:54.493Z,9.70
2023-04-08T13:05:29.503Z,9.70
2023-04-08T13:08:07.028Z,9.80
2023-04-08T13:10:34.062Z,9.80
2023-04-08T13:13:00.944Z,9.80
2023-04-08T13:15:28.334Z,9.80
2023-04-08T13:17:55.328Z,9.80
2023-04-08T13:20:26.081Z,9.80
2023-04-08T13:22:53.387Z,9.80
2023-04-08T13:25:20.676Z,9.70
2023-04-08T13:27:47.592Z,9.70
2023-04-08T13:30:14.547Z,9.70
2023-04-08T13:32:41.435Z,9.70
2023-04-08T13:35:08.726Z,9.70
2023-04-08T13:37:35.776Z,9.60
2023-04-08T13:40:03.449Z,9.60
2023-04-08T13:42:33.330Z,9.60
2023-04-08T13:45:00.566Z,9.60
2023-04-08T13:47:29.375Z,9.60
2023-04-08T13:49:56.258Z,9.70
2023-04-08T13:52:23.213Z,9.70
2023-04-08T13:54:50.120Z,9.70
2023-04-08T13:57:17.155Z,9.80
2023-04-08T13:59:44.783Z,9.70
2023-04-08T14:02:13.195Z,9.70
2023-04-08T14:04:40.574Z,9.70
2023-04-08T14:07:07.674Z,9.70
2023-04-08T14:09:38.204Z,9.60
2023-04-08T14:12:05.191Z,9.60
2023-04-08T14:14:32.102Z,9.60
2023-04-08T14:16:59.189Z,9.60
2023-04-08T14:19:26.130Z,9.60
2023-04-08T14:21:53.065Z,9.60
2023-04-08T14:24:19.940Z,9.50
2023-04-08T14:26:46.941Z,9.50
2023-04-08T14:29:13.877Z,9.40
2023-04-08T14:31:40.998Z,9.40
2023-04-08T14:34:08.013Z,9.30
2023-04-08T14:36:34.861Z,9.20
2023-04-08T14:39:01.889Z,9.20
2023-04-08T14:41:28.789Z,9.20
2023-04-08T14:43:58.472Z,9.20
2023-04-08T14:46:28.586Z,9.20
2023-04-08T14:48:57.108Z,9.20
2023-04-08T14:51:24.027Z,9.20
2023-04-08T14:53:50.922Z,9.30
2023-04-08T14:56:17.958Z,9.30
2023-04-08T14:58:44.814Z,9.30
2023-04-08T15:01:12.173Z,9.30
2023-04-08T15:03:39.169Z,9.30
2023-04-08T15:06:06.723Z,9.40
2023-04-08T15:08:35.310Z,9.30
2023-04-08T15:11:02.267Z,9.30
2023-04-08T15:13:29.194Z,9.30
2023-04-08T15:15:56.133Z,9.30
2023-04-08T15:18:23.032Z,9.30
2023-04-08T15:20:49.942Z,9.40
2023-04-08T15:23:17.151Z,9.40
2023-04-08T15:25:44.102Z,9.30
2023-04-08T15:28:10.971Z,9.30
2023-04-08T15:30:37.917Z,9.30
2023-04-08T15:33:04.953Z,9.30
2023-04-08T15:35:32.980Z,9.20
2023-04-08T15:38:00.899Z,9.20
2023-04-08T15:40:27.938Z,9.10
2023-04-08T15:42:54.858Z,9.00
2023-04-08T15:45:22.447Z,8.90
2023-04-08T15:47:49.355Z,8.90
2023-04-08T15:50:17.638Z,8.90
2023-04-08T15:52:44.734Z,8.80
2023-04-08T15:55:12.054Z,8.80
2023-04-08T15:57:39.348Z,8.80
2023-04-08T16:00:10.574Z,8.70
2023-04-08T16:02:37.936Z,8.70
2023-04-08T16:05:05.172Z,8.80
2023-04-08T16:07:32.064Z,8.80
2023-04-08T16:09:59.244Z,8.80
2023-04-08T16:12:26.184Z,8.80
2023-04-08T16:14:53.094Z,8.80
2023-04-08T16:17:20.042Z,8.80
2023-04-08T16:19:47.274Z,8.80
2023-04-08T16:22:14.236Z,8.80
2023-04-08T16:24:41.519Z,8.80
2023-04-08T16:27:08.428Z,8.80
2023-04-08T16:29:35.697Z,8.80
2023-04-08T16:32:02.838Z,8.80
2023-04-08T16:34:30.551Z,8.80
2023-04-08T16:36:57.440Z,8.80
2023-04-08T16:39:24.314Z,8.80
2023-04-08T16:41:51.649Z,8.80
2023-04-08T16:44:18.486Z,8.80
2023-04-08T16:46:45.643Z,8.80
2023-04-08T16:49:15.020Z,8.70
2023-04-08T16:51:43.097Z,8.70
2023-04-08T16:54:09.918Z,8.70
2023-04-08T16:56:36.912Z,8.70
2023-04-08T16:59:03.802Z,8.70
2023-04-08T17:01:30.801Z,8.70
2023-04-08T17:03:57.923Z,8.70
2023-04-08T17:06:24.910Z,8.80
2023-04-08T17:08:52.639Z,8.90
2023-04-08T17:11:20.061Z,8.90
2023-04-08T17:13:47.430Z,8.80
2023-04-08T17:16:15.963Z,8.80
2023-04-08T17:18:43.396Z,8.80
2023-04-08T17:21:10.709Z,8.80
2023-04-08T17:23:38.156Z,9.10
2023-04-08T17:26:08.716Z,9.40
2023-04-08T17:28:35.926Z,9.50
2023-04-08T17:31:02.982Z,9.50
2023-04-08T17:33:29.937Z,9.50
2023-04-08T17:35:56.954Z,9.40
2023-04-08T17:38:23.982Z,9.30
2023-04-08T17:40:50.847Z,9.20
2023-04-08T17:43:18.091Z,9.20
2023-04-08T17:45:50.221Z,9.10
2023-04-08T17:48:17.511Z,9.00
2023-04-08T17:50:44.438Z,9.00
2023-04-08T17:53:11.746Z,9.00
2023-04-08T17:55:38.639Z,9.00
2023-04-08T17:58:05.593Z,9.00
2023-04-08T18:00:32.519Z,8.90
2023-04-08T18:02:59.592Z,8.90
2023-04-08T18:05:27.382Z,8.80
2023-04-08T18:07:54.329Z,8.80
2023-04-08T18:10:23.135Z,8.70
2023-04-08T18:12:50.809Z,8.70
2023-04-08T18:15:21.882Z,8.60
2023-04-08T18:17:48.835Z,8.60
2023-04-08T18:20:16.015Z,8.50
2023-04-08T18:22:43.117Z,8.50
2023-04-08T18:25:10.063Z,8.50
2023-04-08T18:27:37.130Z,8.50
2023-04-08T18:30:04.243Z,8.60
2023-04-08T18:32:31.167Z,8.50
2023-04-08T18:34:58.174Z,8.50
2023-04-08T18:37:25.139Z,8.60
2023-04-08T18:39:52.296Z,8.60
2023-04-08T18:42:19.272Z,8.60
2023-04-08T18:44:46.355Z,8.60
2023-04-08T18:47:13.352Z,8.60
2023-04-08T18:49:40.284Z,8.60
2023-04-08T18:52:08.555Z,8.50
2023-04-08T18:54:35.974Z,8.50
2023-04-08T18:57:03.096Z,8.50
2023-04-08T18:59:30.593Z,8.50
2023-04-08T19:01:57.714Z,8.50
2023-04-08T19:04:24.930Z,8.60
2023-04-08T19:06:51.909Z,8.60
2023-04-08T19:09:19.408Z,8.70
2023-04-08T19:11:46.545Z,8.80
2023-04-08T19:14:13.522Z,8.80
2023-04-08T19:16:41.637Z,8.90
2023-04-08T19:19:08.914Z,8.90
2023-04-08T19:21:37.967Z,8.90
2023-04-08T19:24:06.465Z,8.90
2023-04-08T19:26:33.888Z,8.80
2023-04-08T19:29:01.326Z,8.80
2023-04-08T19:31:28.309Z,8.80
2023-04-08T19:33:55.506Z,8.80
2023-04-08T19:36:22.546Z,8.80
2023-04-08T19:38:49.613Z,8.80
2023-04-08T19:41:17.209Z,8.90
2023-04-08T19:43:44.207Z,8.90
2023-04-08T19:46:12.411Z,8.90
2023-04-08T19:48:39.652Z,8.80
2023-04-08T19:51:06.892Z,8.80
2023-04-08T19:53:33.754Z,8.70
2023-04-08T19:56:01.797Z,8.70
2023-04-08T19:58:28.931Z,8.70
2023-04-08T20:00:55.922Z,8.80
2023-04-08T20:03:23.160Z,8.80
2023-04-08T20:05:50.342Z,8.80
2023-04-08T20:08:17.262Z,8.70
2023-04-08T20:10:44.233Z,8.70
2023-04-08T20:13:13.166Z,8.70
2023-04-08T20:15:40.683Z,8.60
2023-04-08T20:18:07.999Z,8.70
2023-04-08T20:20:35.352Z,8.70
2023-04-08T20:23:02.467Z,8.70
2023-04-08T20:25:29.328Z,8.70
2023-04-08T20:27:56.344Z,8.70
2023-04-08T20:30:23.156Z,8.70
2023-04-08T20:32:50.113Z,8.60
2023-04-08T20:35:17.057Z,8.60
2023-04-08T20:37:43.980Z,8.60
2023-04-08T20:40:11.125Z,8.60
2023-04-08T20:42:38.827Z,8.60
2023-04-08T20:45:06.202Z,8.70
2023-04-08T20:47:33.665Z,8.70
2023-04-08T20:50:00.877Z,8.80
2023-04-08T20:52:27.934Z,8.80
2023-04-08T20:54:55.317Z,8.80
2023-04-08T20:57:22.257Z,8.80
2023-04-08T20:59:49.268Z,8.80
2023-04-08T21:02:17.764Z,8.80
2023-04-08T21:04:44.712Z,8.80
2023-04-08T21:07:11.633Z,8.80
2023-04-08T21:09:39.296Z,8.70
2023-04-08T21:12:06.164Z,8.70
2023-04-08T21:14:34.845Z,8.80
2023-04-08T21:17:01.736Z,8.80
2023-04-08T21:19:28.542Z,8.80
2023-04-08T21:21:55.396Z,8.90
2023-04-08T21:24:22.268Z,8.90
2023-04-08T21:26:49.089Z,8.90
2023-04-08T21:29:16.349Z,8.90
2023-04-08T21:31:43.232Z,8.90
2023-04-08T21:34:10.232Z,8.90
2023-04-08T21:36:37.135Z,8.90
2023-04-08T21:39:04.564Z,8.80
2023-04-08T21:41:31.685Z,8.90
2023-04-08T21:43:58.611Z,8.90
2023-04-08T21:46:25.739Z,8.80
2023-04-08T21:48:53.209Z,8.80
2023-04-08T21:51:20.495Z,8.80
2023-04-08T21:53:47.382Z,8.90
2023-04-08T21:56:14.314Z,8.80
2023-04-08T21:58:41.204Z,8.80
2023-04-08T22:01:08.297Z,8.80
2023-04-08T22:03:35.243Z,8.80
2023-04-08T22:06:02.282Z,8.80
2023-04-08T22:08:29.169Z,8.80
2023-04-08T22:10:56.011Z,8.80
2023-04-08T22:13:22.942Z,8.80
2023-04-08T22:15:49.764Z,8.80
2023-04-08T22:18:16.852Z,8.80
2023-04-08T22:20:43.762Z,8.80
2023-04-08T22:23:10.696Z,8.80
2023-04-08T22:25:37.610Z,8.80
2023-04-08T22:28:04.459Z,8.80
2023-04-08T22:30:31.335Z,8.80
2023-04-08T22:32:58.322Z,8.90
2023-04-08T22:35:25.219Z,8.90
2023-04-08T22:37:52.113Z,8.90
2023-04-08T22:40:19.261Z,8.90
2023-04-08T22:42:46.202Z,8.80
2023-04-08T22:45:13.133Z,8.80
2023-04-08T22:47:41.834Z,8.80
2023-04-08T22:50:08.992Z,8.80
2023-04-08T22:52:35.917Z,8.80
2023-04-08T22:55:02.917Z,8.70
2023-04-08T22:57:29.970Z,8.70
2023-04-08T22:59:56.959Z,8.70
2023-04-08T23:02:23.879Z,8.60
2023-04-08T23:04:54.374Z,8.60
2023-04-08T23:07:21.224Z,8.60
2023-04-08T23:09:48.135Z,8.50
2023-04-08T23:12:15.017Z,8.50
2023-04-08T23:14:41.892Z,8.50
2023-04-08T23:17:08.736Z,8.50
2023-04-08T23:19:35.587Z,8.50
2023-04-08T23:22:02.415Z,8.40
2023-04-08T23:24:29.312Z,8.40
2023-04-08T23:26:56.924Z,8.40
2023-04-08T23:29:23.870Z,8.40
2023-04-08T23:31:50.837Z,8.40
2023-04-08T23:34:17.746Z,8.40
2023-04-08T23:36:44.659Z,8.40
2023-04-08T23:39:11.545Z,8.50
2023-04-08T23:41:38.423Z,8.50
2023-04-08T23:44:05.503Z,8.60
2023-04-08T23:46:32.463Z,8.60
2023-04-08T23:48:59.400Z,8.60
2023-04-08T23:51:26.792Z,8.60
2023-04-08T23:53:53.865Z,8.60
2023-04-08T23:56:20.787Z,8.60
2023-04-08T23:58:47.681Z,8.50
